createdAt,value
2017-11-29T00:00:43.790Z,946.11
2017-11-29T00:01:43.804Z,946.09
2017-11-29T00:02:43.820Z,946.1
2017-11-29T00:03:43.836Z,946.07
2017-11-29T00:04:43.851Z,946.09
2017-11-29T00:05:43.865Z,946.11
2017-11-29T00:06:43.879Z,946.07
2017-11-29T00:07:43.895Z,946.05
2017-11-29T00:08:43.911Z,946.11
2017-11-29T00:09:43.926Z,946.08
2017-11-29T00:10:43.940Z,946.08
2017-11-29T00:11:43.957Z,946.11
2017-11-29T00:12:43.970Z,946.06
2017-11-29T00:13:43.985Z,946.13
2017-11-29T00:14:44.000Z,946.02
2017-11-29T00:15:44.015Z,946.04
2017-11-29T00:16:44.031Z,946.07
2017-11-29T00:17:44.047Z,946.01
2017-11-29T00:18:44.109Z,946
2017-11-29T00:19:44.074Z,946.01
2017-11-29T00:20:44.088Z,946.04
2017-11-29T00:21:44.104Z,946.04
2017-11-29T00:22:44.120Z,945.99
2017-11-29T00:23:44.135Z,946
2017-11-29T00:24:44.149Z,945.97
2017-11-29T00:25:44.164Z,946
2017-11-29T00:26:44.182Z,946.04
2017-11-29T00:27:44.193Z,945.98
2017-11-29T00:28:44.207Z,946.01
2017-11-29T00:29:44.223Z,945.99
2017-11-29T00:30:44.235Z,946.02
2017-11-29T00:31:44.251Z,946.03
2017-11-29T00:32:44.266Z,946.01
2017-11-29T00:33:44.331Z,946
2017-11-29T00:34:44.296Z,945.97
2017-11-29T00:35:44.314Z,946.01
2017-11-29T00:36:44.325Z,946.01
2017-11-29T00:37:44.339Z,946.06
2017-11-29T00:38:44.353Z,946.02
2017-11-29T00:39:44.368Z,946.02
2017-11-29T00:40:44.381Z,946.04
2017-11-29T00:41:44.396Z,946.05
2017-11-29T00:42:44.410Z,946.01
2017-11-29T00:43:44.426Z,945.96
2017-11-29T00:44:44.442Z,945.95
2017-11-29T00:45:44.455Z,945.95
2017-11-29T00:46:44.470Z,945.93
2017-11-29T00:47:44.492Z,945.93
2017-11-29T00:48:44.551Z,945.94
2017-11-29T00:49:44.513Z,945.92
2017-11-29T00:50:44.530Z,945.99
2017-11-29T00:51:44.545Z,945.92
2017-11-29T00:52:44.558Z,945.91
2017-11-29T00:53:44.575Z,945.91
2017-11-29T00:54:44.589Z,945.87
2017-11-29T00:55:44.612Z,945.87
2017-11-29T00:56:44.619Z,945.9
2017-11-29T00:57:44.634Z,945.88
2017-11-29T00:58:44.647Z,945.88
2017-11-29T00:59:44.664Z,945.87
2017-11-29T01:00:44.677Z,945.9
2017-11-29T01:01:44.693Z,945.92
2017-11-29T01:02:44.709Z,945.93
2017-11-29T01:03:44.773Z,945.96
2017-11-29T01:04:44.737Z,945.95
2017-11-29T01:05:44.753Z,945.93
2017-11-29T01:06:44.769Z,945.94
2017-11-29T01:07:44.784Z,945.93
2017-11-29T01:08:44.801Z,945.95
2017-11-29T01:09:44.812Z,945.93
2017-11-29T01:10:44.827Z,945.94
2017-11-29T01:11:44.841Z,945.95
2017-11-29T01:12:44.857Z,945.94
2017-11-29T01:13:44.872Z,945.94
2017-11-29T01:14:44.887Z,945.93
2017-11-29T01:15:44.899Z,945.97
2017-11-29T01:16:44.917Z,945.95
2017-11-29T01:17:44.948Z,945.97
2017-11-29T01:18:44.944Z,945.89
2017-11-29T01:19:44.961Z,945.91
2017-11-29T01:20:45.126Z,945.93
2017-11-29T01:21:44.989Z,945.92
2017-11-29T01:22:45.007Z,945.9
2017-11-29T01:23:45.018Z,945.89
2017-11-29T01:24:45.033Z,945.93
2017-11-29T01:25:45.047Z,945.92
2017-11-29T01:26:45.062Z,945.91
2017-11-29T01:27:45.077Z,945.95
2017-11-29T01:28:45.094Z,945.95
2017-11-29T01:29:45.107Z,945.97
2017-11-29T01:30:45.121Z,945.91
2017-11-29T01:31:45.136Z,945.95
2017-11-29T01:32:45.188Z,945.97
2017-11-29T01:33:45.165Z,945.92
2017-11-29T01:34:45.178Z,945.95
2017-11-29T01:35:45.245Z,945.98
2017-11-29T01:36:45.210Z,945.91
2017-11-29T01:37:45.251Z,945.89
2017-11-29T01:38:45.239Z,945.94
2017-11-29T01:39:45.255Z,945.89
2017-11-29T01:40:45.268Z,945.95
2017-11-29T01:41:45.282Z,945.96
2017-11-29T01:42:45.297Z,945.94
2017-11-29T01:43:45.312Z,945.92
2017-11-29T01:44:45.328Z,945.95
2017-11-29T01:45:45.344Z,945.92
2017-11-29T01:46:45.369Z,945.96
2017-11-29T01:47:45.373Z,945.93
2017-11-29T01:48:45.387Z,945.95
2017-11-29T01:49:45.401Z,945.97
2017-11-29T01:50:45.416Z,945.92
2017-11-29T01:51:45.429Z,945.89
2017-11-29T01:52:45.446Z,945.93
2017-11-29T01:53:45.459Z,945.84
2017-11-29T01:54:45.472Z,945.84
2017-11-29T01:55:45.488Z,945.8
2017-11-29T01:56:45.504Z,945.81
2017-11-29T01:57:45.523Z,945.8
2017-11-29T01:58:45.533Z,945.84
2017-11-29T01:59:45.547Z,945.83
2017-11-29T02:00:45.562Z,945.79
2017-11-29T02:01:45.577Z,945.76
2017-11-29T02:02:45.592Z,945.79
2017-11-29T02:03:45.705Z,945.77
2017-11-29T02:04:45.621Z,945.77
2017-11-29T02:05:45.634Z,945.81
2017-11-29T02:06:45.650Z,945.73
2017-11-29T02:07:45.662Z,945.75
2017-11-29T02:08:45.730Z,945.68
2017-11-29T02:09:45.693Z,945.72
2017-11-29T02:10:45.706Z,945.74
2017-11-29T02:11:45.721Z,945.7
2017-11-29T02:12:45.737Z,945.71
2017-11-29T02:13:45.750Z,945.74
2017-11-29T02:14:45.765Z,945.74
2017-11-29T02:15:45.783Z,945.71
2017-11-29T02:16:45.795Z,945.72
2017-11-29T02:17:45.809Z,945.71
2017-11-29T02:18:45.823Z,945.75
2017-11-29T02:19:45.839Z,945.76
2017-11-29T02:20:45.851Z,945.75
2017-11-29T02:21:45.867Z,945.71
2017-11-29T02:22:45.880Z,945.71
2017-11-29T02:23:45.896Z,945.67
2017-11-29T02:24:45.910Z,945.64
2017-11-29T02:25:45.975Z,945.63
2017-11-29T02:26:45.938Z,945.66
2017-11-29T02:27:45.952Z,945.66
2017-11-29T02:28:45.966Z,945.65
2017-11-29T02:29:45.982Z,945.63
2017-11-29T02:30:45.999Z,945.63
2017-11-29T02:31:46.011Z,945.62
2017-11-29T02:32:46.027Z,945.65
2017-11-29T02:33:46.043Z,945.67
2017-11-29T02:34:46.057Z,945.67
2017-11-29T02:35:46.082Z,945.64
2017-11-29T02:36:46.084Z,945.6
2017-11-29T02:37:46.101Z,945.67
2017-11-29T02:38:46.112Z,945.71
2017-11-29T02:39:46.128Z,945.73
2017-11-29T02:40:46.144Z,945.75
2017-11-29T02:41:46.209Z,945.67
2017-11-29T02:42:46.172Z,945.64
2017-11-29T02:43:46.188Z,945.63
2017-11-29T02:44:46.203Z,945.66
2017-11-29T02:45:46.215Z,945.63
2017-11-29T02:46:46.229Z,945.66
2017-11-29T02:47:46.245Z,945.62
2017-11-29T02:48:46.258Z,945.61
2017-11-29T02:49:46.272Z,945.61
2017-11-29T02:50:46.288Z,945.63
2017-11-29T02:51:46.304Z,945.6
2017-11-29T02:52:46.319Z,945.6
2017-11-29T02:53:46.333Z,945.58
2017-11-29T02:54:46.347Z,945.6
2017-11-29T02:55:46.362Z,945.53
2017-11-29T02:56:46.427Z,945.58
2017-11-29T02:57:46.391Z,945.58
2017-11-29T02:58:46.404Z,945.56
2017-11-29T02:59:46.424Z,945.6
2017-11-29T03:00:46.436Z,945.57
2017-11-29T03:01:46.449Z,945.59
2017-11-29T03:02:46.465Z,945.61
2017-11-29T03:03:46.479Z,945.61
2017-11-29T03:04:46.492Z,945.64
2017-11-29T03:05:46.507Z,945.6
2017-11-29T03:06:46.523Z,945.58
2017-11-29T03:07:46.537Z,945.54
2017-11-29T03:08:46.550Z,945.6
2017-11-29T03:09:46.566Z,945.6
2017-11-29T03:10:46.580Z,945.61
2017-11-29T03:11:46.644Z,945.65
2017-11-29T03:12:46.609Z,945.62
2017-11-29T03:13:46.625Z,945.63
2017-11-29T03:14:46.640Z,945.66
2017-11-29T03:15:46.661Z,945.65
2017-11-29T03:16:46.673Z,945.67
2017-11-29T03:17:46.684Z,945.69
2017-11-29T03:18:46.701Z,945.67
2017-11-29T03:19:46.715Z,945.68
2017-11-29T03:20:46.729Z,945.68
2017-11-29T03:21:46.743Z,945.67
2017-11-29T03:22:46.757Z,945.7
2017-11-29T03:23:46.772Z,945.7
2017-11-29T03:24:46.786Z,945.66
2017-11-29T03:25:46.817Z,945.66
2017-11-29T03:26:46.865Z,945.71
2017-11-29T03:27:46.832Z,945.65
2017-11-29T03:28:46.846Z,945.67
2017-11-29T03:29:46.860Z,945.66
2017-11-29T03:30:46.876Z,945.63
2017-11-29T03:31:46.890Z,945.62
2017-11-29T03:32:46.905Z,945.61
2017-11-29T03:33:46.919Z,945.62
2017-11-29T03:34:46.934Z,945.6
2017-11-29T03:35:46.949Z,945.64
2017-11-29T03:36:46.963Z,945.6
2017-11-29T03:37:46.988Z,945.6
2017-11-29T03:38:46.992Z,945.55
2017-11-29T03:39:47.007Z,945.56
2017-11-29T03:40:47.020Z,945.51
2017-11-29T03:41:47.035Z,945.49
2017-11-29T03:42:47.055Z,945.55
2017-11-29T03:43:47.065Z,945.52
2017-11-29T03:44:47.080Z,945.52
2017-11-29T03:45:47.094Z,945.54
2017-11-29T03:46:47.109Z,945.53
2017-11-29T03:47:47.125Z,945.49
2017-11-29T03:48:47.138Z,945.45
2017-11-29T03:49:47.152Z,945.46
2017-11-29T03:50:47.167Z,945.45
2017-11-29T03:51:47.181Z,945.42
2017-11-29T03:52:47.196Z,945.4
2017-11-29T03:53:47.211Z,945.4
2017-11-29T03:54:47.234Z,945.39
2017-11-29T03:55:47.240Z,945.39
2017-11-29T03:56:47.255Z,945.4
2017-11-29T03:57:47.270Z,945.44
2017-11-29T03:58:47.285Z,945.41
2017-11-29T03:59:47.349Z,945.39
2017-11-29T04:00:47.312Z,945.4
2017-11-29T04:01:47.328Z,945.43
2017-11-29T04:02:47.340Z,945.42
2017-11-29T04:03:47.356Z,945.39
2017-11-29T04:04:47.393Z,945.4
2017-11-29T04:05:47.386Z,945.44
2017-11-29T04:06:47.401Z,945.45
2017-11-29T04:07:47.415Z,945.45
2017-11-29T04:08:47.428Z,945.44
2017-11-29T04:09:47.444Z,945.47
2017-11-29T04:10:47.460Z,945.46
2017-11-29T04:11:47.473Z,945.45
2017-11-29T04:12:47.489Z,945.47
2017-11-29T04:13:47.501Z,945.45
2017-11-29T04:14:47.565Z,945.42
2017-11-29T04:15:47.531Z,945.45
2017-11-29T04:16:47.544Z,945.45
2017-11-29T04:17:47.558Z,945.44
2017-11-29T04:18:47.572Z,945.45
2017-11-29T04:19:47.589Z,945.46
2017-11-29T04:20:47.604Z,945.44
2017-11-29T04:21:47.621Z,945.45
2017-11-29T04:22:47.648Z,945.44
2017-11-29T04:23:47.648Z,945.45
2017-11-29T04:24:47.661Z,945.44
2017-11-29T04:25:47.676Z,945.45
2017-11-29T04:26:47.698Z,945.48
2017-11-29T04:27:47.705Z,945.48
2017-11-29T04:28:47.720Z,945.44
2017-11-29T04:29:47.785Z,945.46
2017-11-29T04:30:47.750Z,945.46
2017-11-29T04:31:47.764Z,945.45
2017-11-29T04:32:47.778Z,945.45
2017-11-29T04:33:47.810Z,945.44
2017-11-29T04:34:47.807Z,945.44
2017-11-29T04:35:47.821Z,945.44
2017-11-29T04:36:47.837Z,945.46
2017-11-29T04:37:47.851Z,945.45
2017-11-29T04:38:47.867Z,945.45
2017-11-29T04:39:47.887Z,945.43
2017-11-29T04:40:47.897Z,945.43
2017-11-29T04:41:47.912Z,945.39
2017-11-29T04:42:47.927Z,945.4
2017-11-29T04:43:47.940Z,945.42
2017-11-29T04:44:48.004Z,945.38
2017-11-29T04:45:47.979Z,945.44
2017-11-29T04:46:47.984Z,945.41
2017-11-29T04:47:47.998Z,945.38
2017-11-29T04:48:48.015Z,945.37
2017-11-29T04:49:48.029Z,945.35
2017-11-29T04:50:48.043Z,945.35
2017-11-29T04:51:48.060Z,945.39
2017-11-29T04:52:48.073Z,945.37
2017-11-29T04:53:48.088Z,945.35
2017-11-29T04:54:48.101Z,945.31
2017-11-29T04:55:48.117Z,945.32
2017-11-29T04:56:48.132Z,945.28
2017-11-29T04:57:48.145Z,945.35
2017-11-29T04:58:48.161Z,945.35
2017-11-29T04:59:48.225Z,945.35
2017-11-29T05:00:48.190Z,945.34
2017-11-29T05:01:48.205Z,945.33
2017-11-29T05:02:48.230Z,945.36
2017-11-29T05:03:48.234Z,945.34
2017-11-29T05:04:48.249Z,945.38
2017-11-29T05:05:48.263Z,945.4
2017-11-29T05:06:48.279Z,945.35
2017-11-29T05:07:48.293Z,945.39
2017-11-29T05:08:48.307Z,945.34
2017-11-29T05:09:48.321Z,945.32
2017-11-29T05:10:48.337Z,945.32
2017-11-29T05:11:48.353Z,945.34
2017-11-29T05:12:48.364Z,945.38
2017-11-29T05:13:48.380Z,945.36
2017-11-29T05:14:48.445Z,945.34
2017-11-29T05:15:48.409Z,945.37
2017-11-29T05:16:48.426Z,945.37
2017-11-29T05:17:48.438Z,945.36
2017-11-29T05:18:48.454Z,945.38
2017-11-29T05:19:48.469Z,945.34
2017-11-29T05:20:48.483Z,945.4
2017-11-29T05:21:48.498Z,945.39
2017-11-29T05:22:48.514Z,945.39
2017-11-29T05:23:48.567Z,945.4
2017-11-29T05:24:48.544Z,945.36
2017-11-29T05:25:48.557Z,945.38
2017-11-29T05:26:48.572Z,945.38
2017-11-29T05:27:48.585Z,945.41
2017-11-29T05:28:48.600Z,945.38
2017-11-29T05:29:48.670Z,945.4
2017-11-29T05:30:48.629Z,945.45
2017-11-29T05:31:48.649Z,945.41
2017-11-29T05:32:48.661Z,945.42
2017-11-29T05:33:48.674Z,945.44
2017-11-29T05:34:48.692Z,945.42
2017-11-29T05:35:48.703Z,945.4
2017-11-29T05:36:48.719Z,945.38
2017-11-29T05:37:48.732Z,945.37
2017-11-29T05:38:48.748Z,945.41
2017-11-29T05:39:48.867Z,945.4
2017-11-29T05:40:48.786Z,945.43
2017-11-29T05:41:48.797Z,945.39
2017-11-29T05:42:48.807Z,945.42
2017-11-29T05:43:48.822Z,945.43
2017-11-29T05:44:48.888Z,945.42
2017-11-29T05:45:48.852Z,945.46
2017-11-29T05:46:48.865Z,945.44
2017-11-29T05:47:48.881Z,945.45
2017-11-29T05:48:48.896Z,945.5
2017-11-29T05:49:48.927Z,945.48
2017-11-29T05:50:48.927Z,945.48
2017-11-29T05:51:48.941Z,945.48
2017-11-29T05:52:48.956Z,945.48
2017-11-29T05:53:48.972Z,945.43
2017-11-29T05:54:48.987Z,945.43
2017-11-29T05:55:49.001Z,945.4
2017-11-29T05:56:49.017Z,945.38
2017-11-29T05:57:49.031Z,945.42
2017-11-29T05:58:49.051Z,945.38
2017-11-29T05:59:49.112Z,945.41
2017-11-29T06:00:49.077Z,945.41
2017-11-29T06:01:49.093Z,945.4
2017-11-29T06:02:49.109Z,945.33
2017-11-29T06:03:49.123Z,945.37
2017-11-29T06:04:49.139Z,945.36
2017-11-29T06:05:49.154Z,945.39
2017-11-29T06:06:49.169Z,945.35
2017-11-29T06:07:49.189Z,945.38
2017-11-29T06:08:49.208Z,945.44
2017-11-29T06:09:49.215Z,945.46
2017-11-29T06:10:49.231Z,945.44
2017-11-29T06:11:49.247Z,945.39
2017-11-29T06:12:49.262Z,945.34
2017-11-29T06:13:49.278Z,945.31
2017-11-29T06:14:49.293Z,945.37
2017-11-29T06:15:49.313Z,945.37
2017-11-29T06:16:49.324Z,945.38
2017-11-29T06:17:49.342Z,945.41
2017-11-29T06:18:49.405Z,945.36
2017-11-29T06:19:49.371Z,945.37
2017-11-29T06:20:49.386Z,945.38
2017-11-29T06:21:49.401Z,945.43
2017-11-29T06:22:49.424Z,945.48
2017-11-29T06:23:49.435Z,945.47
2017-11-29T06:24:49.449Z,945.51
2017-11-29T06:25:49.464Z,945.49
2017-11-29T06:26:49.479Z,945.49
2017-11-29T06:27:49.497Z,945.49
2017-11-29T06:28:49.511Z,945.49
2017-11-29T06:29:49.526Z,945.51
2017-11-29T06:30:49.548Z,945.5
2017-11-29T06:31:49.558Z,945.51
2017-11-29T06:32:49.572Z,945.51
2017-11-29T06:33:49.639Z,945.51
2017-11-29T06:34:49.607Z,945.45
2017-11-29T06:35:49.620Z,945.41
2017-11-29T06:36:49.634Z,945.43
2017-11-29T06:37:49.649Z,945.41
2017-11-29T06:38:49.665Z,945.48
2017-11-29T06:39:49.680Z,945.46
2017-11-29T06:40:49.696Z,945.44
2017-11-29T06:41:49.713Z,945.44
2017-11-29T06:42:49.736Z,945.47
2017-11-29T06:43:49.790Z,945.42
2017-11-29T06:44:49.772Z,945.46
2017-11-29T06:45:49.773Z,945.45
2017-11-29T06:46:49.789Z,945.46
2017-11-29T06:47:49.806Z,945.44
2017-11-29T06:48:49.870Z,945.45
2017-11-29T06:49:49.835Z,945.44
2017-11-29T06:50:49.850Z,945.41
2017-11-29T06:51:49.869Z,945.41
2017-11-29T06:52:49.881Z,945.4
2017-11-29T06:53:49.896Z,945.4
2017-11-29T06:54:49.912Z,945.44
2017-11-29T06:55:49.928Z,945.4
2017-11-29T06:56:49.943Z,945.41
2017-11-29T06:57:49.957Z,945.4
2017-11-29T06:58:49.974Z,945.42
2017-11-29T06:59:49.988Z,945.41
2017-11-29T07:00:50.005Z,945.45
2017-11-29T07:01:50.019Z,945.51
2017-11-29T07:02:50.034Z,945.48
2017-11-29T07:03:50.050Z,945.51
2017-11-29T07:04:50.065Z,945.49
2017-11-29T07:05:50.080Z,945.56
2017-11-29T07:06:50.097Z,945.56
2017-11-29T07:07:50.162Z,945.55
2017-11-29T07:08:50.127Z,945.56
2017-11-29T07:09:50.141Z,945.54
2017-11-29T07:10:50.158Z,945.61
2017-11-29T07:11:50.173Z,945.64
2017-11-29T07:12:50.233Z,945.62
2017-11-29T07:13:50.203Z,945.65
2017-11-29T07:14:50.223Z,945.64
2017-11-29T07:15:50.233Z,945.71
2017-11-29T07:16:50.249Z,945.69
2017-11-29T07:17:50.264Z,945.71
2017-11-29T07:18:50.280Z,945.76
2017-11-29T07:19:50.296Z,945.74
2017-11-29T07:20:50.312Z,945.74
2017-11-29T07:21:50.329Z,945.77
2017-11-29T07:22:50.344Z,945.81
2017-11-29T07:23:50.362Z,945.78
2017-11-29T07:24:50.374Z,945.8
2017-11-29T07:25:50.442Z,945.8
2017-11-29T07:26:50.407Z,945.79
2017-11-29T07:27:50.422Z,945.78
2017-11-29T07:28:50.438Z,945.77
2017-11-29T07:29:50.454Z,945.73
2017-11-29T07:30:50.521Z,945.73
2017-11-29T07:31:50.488Z,945.7
2017-11-29T07:32:50.501Z,945.72
2017-11-29T07:33:50.518Z,945.69
2017-11-29T07:34:50.532Z,945.7
2017-11-29T07:35:50.559Z,945.68
2017-11-29T07:36:50.565Z,945.68
2017-11-29T07:37:50.581Z,945.7
2017-11-29T07:38:50.595Z,945.69
2017-11-29T07:39:50.613Z,945.7
2017-11-29T07:40:50.679Z,945.73
2017-11-29T07:41:50.645Z,945.76
2017-11-29T07:42:50.668Z,945.69
2017-11-29T07:43:50.676Z,945.77
2017-11-29T07:44:50.693Z,945.73
2017-11-29T07:45:50.709Z,945.76
2017-11-29T07:46:50.725Z,945.75
2017-11-29T07:47:50.740Z,945.75
2017-11-29T07:48:50.758Z,945.72
2017-11-29T07:49:50.773Z,945.76
2017-11-29T07:50:50.789Z,945.78
2017-11-29T07:51:50.806Z,945.73
2017-11-29T07:52:50.822Z,945.8
2017-11-29T07:53:50.837Z,945.81
2017-11-29T07:54:50.853Z,945.8
2017-11-29T07:55:50.928Z,945.79
2017-11-29T07:56:50.883Z,945.78
2017-11-29T07:57:50.903Z,945.75
2017-11-29T07:58:50.917Z,945.73
2017-11-29T07:59:50.933Z,945.76
2017-11-29T08:00:50.949Z,945.73
2017-11-29T08:01:50.964Z,945.7
2017-11-29T08:02:50.990Z,945.68
2017-11-29T08:03:50.998Z,945.72
2017-11-29T08:04:51.013Z,945.71
2017-11-29T08:05:51.031Z,945.73
2017-11-29T08:06:51.046Z,945.72
2017-11-29T08:07:51.063Z,945.75
2017-11-29T08:08:51.078Z,945.69
2017-11-29T08:09:51.095Z,945.7
2017-11-29T08:10:51.161Z,945.65
2017-11-29T08:11:51.126Z,945.7
2017-11-29T08:12:51.143Z,945.64
2017-11-29T08:13:51.161Z,945.68
2017-11-29T08:14:51.175Z,945.66
2017-11-29T08:15:51.197Z,945.64
2017-11-29T08:16:51.208Z,945.69
2017-11-29T08:17:51.225Z,945.67
2017-11-29T08:18:51.241Z,945.67
2017-11-29T08:19:51.267Z,945.68
2017-11-29T08:20:51.274Z,945.7
2017-11-29T08:21:51.289Z,945.7
2017-11-29T08:22:51.308Z,945.73
2017-11-29T08:23:51.322Z,945.66
2017-11-29T08:24:51.339Z,945.73
2017-11-29T08:25:51.354Z,945.7
2017-11-29T08:26:51.373Z,945.72
2017-11-29T08:27:51.398Z,945.75
2017-11-29T08:28:51.406Z,945.78
2017-11-29T08:29:51.426Z,945.75
2017-11-29T08:30:51.437Z,945.73
2017-11-29T08:31:51.453Z,945.75
2017-11-29T08:32:51.468Z,945.73
2017-11-29T08:33:51.484Z,945.77
2017-11-29T08:34:51.502Z,945.75
2017-11-29T08:35:51.521Z,945.76
2017-11-29T08:36:51.534Z,945.75
2017-11-29T08:37:51.550Z,945.75
2017-11-29T08:38:51.567Z,945.68
2017-11-29T08:39:51.583Z,945.68
2017-11-29T08:40:51.598Z,945.69
2017-11-29T08:41:51.614Z,945.65
2017-11-29T08:42:51.629Z,945.65
2017-11-29T08:43:51.649Z,945.64
2017-11-29T08:44:51.663Z,945.65
2017-11-29T08:45:51.680Z,945.67
2017-11-29T08:46:51.697Z,945.67
2017-11-29T08:47:51.713Z,945.7
2017-11-29T08:48:51.729Z,945.69
2017-11-29T08:49:51.746Z,945.65
2017-11-29T08:50:51.761Z,945.67
2017-11-29T08:51:51.777Z,945.72
2017-11-29T08:52:51.797Z,945.7
2017-11-29T08:53:51.811Z,945.72
2017-11-29T08:54:51.831Z,945.72
2017-11-29T08:55:51.845Z,945.7
2017-11-29T08:56:51.863Z,945.7
2017-11-29T08:57:51.927Z,945.69
2017-11-29T08:58:51.894Z,945.67
2017-11-29T08:59:51.910Z,945.7
2017-11-29T09:00:51.930Z,945.68
2017-11-29T09:01:51.943Z,945.71
2017-11-29T09:02:51.960Z,945.71
2017-11-29T09:03:51.977Z,945.72
2017-11-29T09:04:51.993Z,945.69
2017-11-29T09:05:52.011Z,945.7
2017-11-29T09:06:52.026Z,945.67
2017-11-29T09:07:52.043Z,945.73
2017-11-29T09:08:52.060Z,945.71
2017-11-29T09:09:52.095Z,945.69
2017-11-29T09:10:52.093Z,945.73
2017-11-29T09:11:52.110Z,945.79
2017-11-29T09:12:52.126Z,945.81
2017-11-29T09:13:52.142Z,945.76
2017-11-29T09:14:52.209Z,945.77
2017-11-29T09:15:52.177Z,945.77
2017-11-29T09:16:52.194Z,945.75
2017-11-29T09:17:52.211Z,945.73
2017-11-29T09:18:52.236Z,945.78
2017-11-29T09:19:52.248Z,945.77
2017-11-29T09:20:52.259Z,945.79
2017-11-29T09:21:52.276Z,945.76
2017-11-29T09:22:52.294Z,945.75
2017-11-29T09:23:52.314Z,945.79
2017-11-29T09:24:52.327Z,945.76
2017-11-29T09:25:52.345Z,945.8
2017-11-29T09:26:52.365Z,945.82
2017-11-29T09:27:52.379Z,945.8
2017-11-29T09:28:52.394Z,945.82
2017-11-29T09:29:52.412Z,945.79
2017-11-29T09:30:52.427Z,945.83
2017-11-29T09:31:52.445Z,945.83
2017-11-29T09:32:52.460Z,945.8
2017-11-29T09:33:52.479Z,945.8
2017-11-29T09:34:52.495Z,945.76
2017-11-29T09:35:52.511Z,945.72
2017-11-29T09:36:52.527Z,945.73
2017-11-29T09:37:52.545Z,945.65
2017-11-29T09:38:52.562Z,945.66
2017-11-29T09:39:52.580Z,945.72
2017-11-29T09:40:52.604Z,945.65
2017-11-29T09:41:52.614Z,945.71
2017-11-29T09:42:52.630Z,945.71
2017-11-29T09:43:52.649Z,945.72
2017-11-29T09:44:52.665Z,945.75
2017-11-29T09:45:52.681Z,945.73
2017-11-29T09:46:52.696Z,945.73
2017-11-29T09:47:52.714Z,945.71
2017-11-29T09:48:52.782Z,945.71
2017-11-29T09:49:52.746Z,945.74
2017-11-29T09:50:52.765Z,945.72
2017-11-29T09:51:52.789Z,945.71
2017-11-29T09:52:52.800Z,945.66
2017-11-29T09:53:52.816Z,945.66
2017-11-29T09:54:52.832Z,945.62
2017-11-29T09:55:52.851Z,945.59
2017-11-29T09:56:52.865Z,945.61
2017-11-29T09:57:52.882Z,945.62
2017-11-29T09:58:52.898Z,945.57
2017-11-29T09:59:52.915Z,945.61
2017-11-29T10:00:52.932Z,945.54
2017-11-29T10:01:52.950Z,945.58
2017-11-29T10:02:52.965Z,945.57
2017-11-29T10:03:53.035Z,945.56
2017-11-29T10:04:53.002Z,945.62
2017-11-29T10:05:53.016Z,945.55
2017-11-29T10:06:53.044Z,945.56
2017-11-29T10:07:53.051Z,945.55
2017-11-29T10:08:53.068Z,945.59
2017-11-29T10:09:53.085Z,945.59
2017-11-29T10:10:53.102Z,945.55
2017-11-29T10:11:53.123Z,945.53
2017-11-29T10:12:53.136Z,945.54
2017-11-29T10:13:53.154Z,945.52
2017-11-29T10:14:53.173Z,945.47
2017-11-29T10:15:53.187Z,945.47
2017-11-29T10:16:53.208Z,945.45
2017-11-29T10:17:53.226Z,945.48
2017-11-29T10:18:53.241Z,945.5
2017-11-29T10:19:53.257Z,945.49
2017-11-29T10:20:53.275Z,945.47
2017-11-29T10:21:53.293Z,945.44
2017-11-29T10:22:53.309Z,945.49
2017-11-29T10:23:53.328Z,945.48
2017-11-29T10:24:53.346Z,945.43
2017-11-29T10:25:53.361Z,945.41
2017-11-29T10:26:53.379Z,945.38
2017-11-29T10:27:53.397Z,945.41
2017-11-29T10:28:53.423Z,945.39
2017-11-29T10:29:53.432Z,945.41
2017-11-29T10:30:53.456Z,945.35
2017-11-29T10:31:53.467Z,945.36
2017-11-29T10:32:53.485Z,945.38
2017-11-29T10:33:53.499Z,945.34
2017-11-29T10:34:53.518Z,945.31
2017-11-29T10:35:53.534Z,945.33
2017-11-29T10:36:53.551Z,945.32
2017-11-29T10:37:53.568Z,945.3
2017-11-29T10:38:53.585Z,945.28
2017-11-29T10:39:53.602Z,945.26
2017-11-29T10:40:53.670Z,945.29
2017-11-29T10:41:53.635Z,945.28
2017-11-29T10:42:53.650Z,945.25
2017-11-29T10:43:53.670Z,945.24
2017-11-29T10:44:53.684Z,945.23
2017-11-29T10:45:53.701Z,945.2
2017-11-29T10:46:53.720Z,945.21
2017-11-29T10:47:53.737Z,945.2
2017-11-29T10:48:53.750Z,945.19
2017-11-29T10:49:53.768Z,945.17
2017-11-29T10:50:53.784Z,945.19
2017-11-29T10:51:53.800Z,945.17
2017-11-29T10:52:53.818Z,945.17
2017-11-29T10:53:53.834Z,945.14
2017-11-29T10:54:53.876Z,945.17
2017-11-29T10:55:53.865Z,945.15
2017-11-29T10:56:53.932Z,945.16
2017-11-29T10:57:53.899Z,945.19
2017-11-29T10:58:53.916Z,945.19
2017-11-29T10:59:53.933Z,945.18
2017-11-29T11:00:53.950Z,945.18
2017-11-29T11:01:53.965Z,945.17
2017-11-29T11:02:53.982Z,945.18
2017-11-29T11:03:53.997Z,945.19
2017-11-29T11:04:54.014Z,945.16
2017-11-29T11:05:54.031Z,945.16
2017-11-29T11:06:54.047Z,945.14
2017-11-29T11:07:54.063Z,945.19
2017-11-29T11:08:54.087Z,945.13
2017-11-29T11:09:54.098Z,945.15
2017-11-29T11:10:54.113Z,945.14
2017-11-29T11:11:54.178Z,945.11
2017-11-29T11:12:54.146Z,945.13
2017-11-29T11:13:54.162Z,945.13
2017-11-29T11:14:54.180Z,945.11
2017-11-29T11:15:54.196Z,945.14
2017-11-29T11:16:54.216Z,945.06
2017-11-29T11:17:54.228Z,945.09
2017-11-29T11:18:54.244Z,945.12
2017-11-29T11:19:54.259Z,945.08
2017-11-29T11:20:54.278Z,945.09
2017-11-29T11:21:54.293Z,945.1
2017-11-29T11:22:54.312Z,945.08
2017-11-29T11:23:54.327Z,945.06
2017-11-29T11:24:54.341Z,945.06
2017-11-29T11:25:54.360Z,945.07
2017-11-29T11:26:54.374Z,945.08
2017-11-29T11:27:54.391Z,945.09
2017-11-29T11:28:54.417Z,945.09
2017-11-29T11:29:54.491Z,945.08
2017-11-29T11:30:54.440Z,945.09
2017-11-29T11:31:54.459Z,945.1
2017-11-29T11:32:54.474Z,945.09
2017-11-29T11:33:54.489Z,945.08
2017-11-29T11:34:54.509Z,945.04
2017-11-29T11:35:54.522Z,945.04
2017-11-29T11:36:54.539Z,945.03
2017-11-29T11:37:54.553Z,944.99
2017-11-29T11:38:54.572Z,944.93
2017-11-29T11:39:54.586Z,944.92
2017-11-29T11:40:54.601Z,944.92
2017-11-29T11:41:54.622Z,944.94
2017-11-29T11:42:54.635Z,944.94
2017-11-29T11:43:54.658Z,944.94
2017-11-29T11:44:54.719Z,944.93
2017-11-29T11:45:54.684Z,944.91
2017-11-29T11:46:54.701Z,944.89
2017-11-29T11:47:54.716Z,944.9
2017-11-29T11:48:54.731Z,944.88
2017-11-29T11:49:54.753Z,944.9
2017-11-29T11:50:54.763Z,944.86
2017-11-29T11:51:54.797Z,944.84
2017-11-29T11:52:54.799Z,944.86
2017-11-29T11:53:54.817Z,944.82
2017-11-29T11:54:54.830Z,944.84
2017-11-29T11:55:54.846Z,944.81
2017-11-29T11:56:54.863Z,944.83
2017-11-29T11:57:54.878Z,944.8
2017-11-29T11:58:54.895Z,944.77
2017-11-29T11:59:54.960Z,944.77
2017-11-29T12:00:54.935Z,944.77
2017-11-29T12:01:54.944Z,944.74
2017-11-29T12:02:54.959Z,944.74
2017-11-29T12:03:54.975Z,944.73
2017-11-29T12:04:54.991Z,944.7
2017-11-29T12:05:55.008Z,944.69
2017-11-29T12:06:55.024Z,944.7
2017-11-29T12:07:55.040Z,944.64
2017-11-29T12:08:55.057Z,944.68
2017-11-29T12:09:55.073Z,944.63
2017-11-29T12:10:55.088Z,944.63
2017-11-29T12:11:55.106Z,944.64
2017-11-29T12:12:55.122Z,944.61
2017-11-29T12:13:55.139Z,944.62
2017-11-29T12:14:55.153Z,944.57
2017-11-29T12:15:55.171Z,944.61
2017-11-29T12:16:55.238Z,944.58
2017-11-29T12:17:55.204Z,944.6
2017-11-29T12:18:55.220Z,944.59
2017-11-29T12:19:55.234Z,944.58
2017-11-29T12:20:55.280Z,944.63
2017-11-29T12:21:55.272Z,944.58
2017-11-29T12:22:55.287Z,944.57
2017-11-29T12:23:55.301Z,944.6
2017-11-29T12:24:55.317Z,944.64
2017-11-29T12:25:55.333Z,944.61
2017-11-29T12:26:55.350Z,944.62
2017-11-29T12:27:55.367Z,944.58
2017-11-29T12:28:55.382Z,944.6
2017-11-29T12:29:55.398Z,944.56
2017-11-29T12:30:55.421Z,944.58
2017-11-29T12:31:55.432Z,944.58